Goldfield, Iowa
Current Conditions -  °F | °C
As of 2:55 AM on Sunday 21 Dec 2014 (Local Time) from KCAV Reporting Station
Haze Haze  
Wind Chill: 24°   Ceiling: 300
Heat Index: 34°   Visibility: 1.2mi
Dew Point: 34°   Wind: 15mph
Humidity: 100%   Direction: 160°SSE
Pressure: 29.99"   Gusts: NA
Location:  42.74°N, 93.92°W
Report Text: KCAV 210855Z AUTO 16013KT 1 1/4SM BR OVC003 01/01 A2999 RMK AO2
Loading
Personal Weather Stations






























Interactive Weather Map New forecast layout! Learn more

10-Day Weather Forecast

Advertisements
Track Severe Weather on mobile